Time;durP1;ratioP1;P1;durP2;ratioP2;P2;SDS_P1;SDS_P2;PMS_P1;PMS_P2;Temp;Humidity;BMP_temperature;BMP_pressure;BME280_temperature;BME280_humidity;BME280_pressure;Samples;Min_cycle;Max_cycle;Signal;HPM_P1;HPM_P2
2022/03/15 00:02:37;;;;;;;29.45;15.00;;;;;;;3.37;100.00;101893.75;6177698;28;20510;-89
2022/03/15 00:05:39;;;;;;;26.42;15.13;;;;;;;3.34;100.00;101891.28;6189292;28;20093;-90
2022/03/15 00:08:42;;;;;;;24.27;13.85;;;;;;;3.31;100.00;101894.75;6182555;28;20385;-89
2022/03/15 00:11:44;;;;;;;27.83;15.13;;;;;;;3.27;100.00;101894.88;6183620;28;20047;-89
2022/03/15 00:14:46;;;;;;;29.38;15.32;;;;;;;3.22;100.00;101895.84;6186062;28;20053;-89
2022/03/15 00:17:48;;;;;;;27.30;14.43;;;;;;;3.17;100.00;101902.78;6177172;28;20185;-90
2022/03/15 00:20:50;;;;;;;27.85;14.90;;;;;;;3.12;100.00;101904.63;6188246;28;20136;-89
2022/03/15 00:23:52;;;;;;;29.63;16.08;;;;;;;3.10;100.00;101901.25;6189213;28;20124;-89
2022/03/15 00:26:54;;;;;;;29.48;16.08;;;;;;;3.09;100.00;101914.13;6184420;28;20050;-89
2022/03/15 00:29:55;;;;;;;26.25;14.32;;;;;;;3.05;100.00;101912.50;6183573;28;20046;-89
2022/03/15 00:32:57;;;;;;;26.45;14.10;;;;;;;3.02;100.00;101921.09;6183623;28;20039;-89
2022/03/15 00:35:59;;;;;;;26.48;15.13;;;;;;;3.01;100.00;101916.88;6188365;28;20038;-89
2022/03/15 00:39:01;;;;;;;27.98;14.10;;;;;;;2.98;100.00;101922.03;6176035;28;20047;-89
2022/03/15 00:42:03;;;;;;;27.25;14.60;;;;;;;2.97;100.00;101920.38;6184779;28;20042;-90
2022/03/15 00:45:06;;;;;;;29.35;15.27;;;;;;;2.96;100.00;101924.66;6186397;28;20042;-89
2022/03/15 00:48:08;;;;;;;31.13;15.20;;;;;;;2.95;100.00;101922.94;6169116;28;20042;-89
2022/03/15 00:51:10;;;;;;;32.22;16.60;;;;;;;2.99;100.00;101926.28;6170307;28;20630;-89
2022/03/15 00:54:12;;;;;;;29.15;16.02;;;;;;;3.00;100.00;101933.06;6186157;28;20039;-89
2022/03/15 00:57:15;;;;;;;34.92;16.75;;;;;;;2.99;100.00;101932.25;6158211;28;20062;-89
2022/03/15 01:00:17;;;;;;;34.60;17.20;;;;;;;3.03;100.00;101935.56;6196442;28;20043;-89
2022/03/15 01:03:19;;;;;;;33.42;17.10;;;;;;;3.07;100.00;101939.72;6174534;28;20092;-89
2022/03/15 01:06:22;;;;;;;38.90;17.48;;;;;;;3.04;100.00;101946.66;6197375;28;20436;-89
2022/03/15 01:09:24;;;;;;;37.65;18.48;;;;;;;3.04;100.00;101946.66;6192744;28;20046;-89
2022/03/15 01:12:26;;;;;;;35.42;18.40;;;;;;;3.07;100.00;101944.84;6186368;28;20085;-89
2022/03/15 01:15:29;;;;;;;34.22;18.52;;;;;;;3.09;100.00;101947.38;6193744;28;20264;-89
2022/03/15 01:18:31;;;;;;;38.28;19.25;;;;;;;3.12;100.00;101942.16;6165796;28;20153;-89
2022/03/15 01:21:35;;;;;;;36.60;18.17;;;;;;;3.13;100.00;101937.03;6193982;28;20054;-89
2022/03/15 01:24:37;;;;;;;40.45;19.08;;;;;;;3.14;100.00;101936.13;6173578;28;20073;-89
2022/03/15 01:27:38;;;;;;;48.85;20.80;;;;;;;3.14;100.00;101938.69;6190505;28;20050;-89
2022/03/15 01:30:40;;;;;;;38.08;19.50;;;;;;;3.20;100.00;101937.69;6196621;28;20076;-89
2022/03/15 01:33:43;;;;;;;43.42;19.38;;;;;;;3.25;100.00;101938.41;6193250;28;20050;-89
2022/03/15 01:36:45;;;;;;;43.50;20.65;;;;;;;3.25;100.00;101933.28;6189903;28;20649;-89
2022/03/15 01:39:47;;;;;;;36.58;19.73;;;;;;;3.27;100.00;101933.25;6191673;28;20038;-89
2022/03/15 01:42:48;;;;;;;43.70;21.35;;;;;;;3.25;100.00;101925.63;6192554;28;20038;-89
2022/03/15 01:45:50;;;;;;;43.05;22.17;;;;;;;3.25;100.00;101920.50;6194108;28;20046;-89
2022/03/15 01:48:52;;;;;;;48.35;21.63;;;;;;;3.30;100.00;101912.72;6188717;28;20068;-89
2022/03/15 01:51:54;;;;;;;43.22;21.33;;;;;;;3.32;100.00;101911.78;6189371;28;21503;-89
2022/03/15 01:54:56;;;;;;;41.75;20.58;;;;;;;3.29;100.00;101900.81;6172209;28;20054;-90
2022/03/15 01:57:58;;;;;;;39.00;19.88;;;;;;;3.25;100.00;101907.72;6156612;28;20043;-89
2022/03/15 02:01:01;;;;;;;39.03;20.10;;;;;;;3.20;100.00;101905.25;6191380;28;20049;-89
2022/03/15 02:04:03;;;;;;;36.10;17.92;;;;;;;3.13;100.00;101900.34;6173807;28;20094;-89
2022/03/15 02:07:12;;;;;;;38.03;19.00;;;;;;;3.06;100.00;101904.81;6194485;28;20042;-89
2022/03/15 02:10:14;;;;;;;40.83;19.80;;;;;;;3.02;100.00;101901.47;6178245;28;20120;-89
2022/03/15 02:13:16;;;;;;;42.25;19.77;;;;;;;2.99;100.00;101898.16;6209943;28;20038;-89
2022/03/15 02:16:19;;;;;;;39.88;19.25;;;;;;;2.92;100.00;101904.31;6192790;28;20038;-89
2022/03/15 02:19:24;;;;;;;42.17;19.98;;;;;;;2.89;100.00;101912.88;6187510;28;20122;-89
2022/03/15 02:22:26;;;;;;;44.03;19.08;;;;;;;2.85;100.00;101910.44;6175717;28;20081;-89
2022/03/15 02:25:29;;;;;;;32.40;17.25;;;;;;;2.82;100.00;101911.34;6189635;28;20034;-89
2022/03/15 02:28:30;;;;;;;35.05;17.85;;;;;;;2.76;100.00;101907.22;6189808;28;20132;-89
2022/03/15 02:31:32;;;;;;;41.10;19.00;;;;;;;2.75;100.00;101905.53;6173835;28;20050;-89
2022/03/15 02:34:36;;;;;;;38.30;19.23;;;;;;;2.74;100.00;101892.81;6198392;28;20479;-89
2022/03/15 02:37:38;;;;;;;39.22;18.50;;;;;;;2.74;100.00;101890.25;6176836;28;20051;-89
2022/03/15 02:40:40;;;;;;;35.45;17.65;;;;;;;2.73;100.00;101884.31;6203242;28;20046;-89
2022/03/15 02:43:43;;;;;;;34.30;17.88;;;;;;;2.74;100.00;101883.41;6182894;28;20125;-89
2022/03/15 02:46:51;;;;;;;38.88;18.45;;;;;;;2.71;100.00;101880.94;6172933;28;20042;-89
2022/03/15 02:49:53;;;;;;;38.78;17.58;;;;;;;2.70;100.00;101886.09;6180350;28;20042;-89
2022/03/15 02:52:55;;;;;;;34.55;17.38;;;;;;;2.65;100.00;101875.13;6191746;28;20105;-89
2022/03/15 02:55:57;;;;;;;35.08;17.33;;;;;;;2.63;100.00;101885.38;6190467;28;20081;-89
2022/03/15 02:58:59;;;;;;;35.72;16.60;;;;;;;2.61;100.00;101878.63;6177579;28;20053;-89
2022/03/15 03:02:00;;;;;;;39.05;17.05;;;;;;;2.58;100.00;101876.97;6183080;28;20073;-89
2022/03/15 03:05:03;;;;;;;39.88;18.35;;;;;;;2.54;100.00;101873.69;6195329;28;20061;-89
2022/03/15 03:08:05;;;;;;;36.17;16.60;;;;;;;2.53;100.00;101874.53;6189384;28;20763;-89
2022/03/15 03:11:07;;;;;;;32.80;15.63;;;;;;;2.53;100.00;101871.13;6185067;28;20111;-89
2022/03/15 03:14:12;;;;;;;32.42;16.30;;;;;;;2.53;100.00;101881.38;6205249;28;20139;-89
2022/03/15 03:17:14;;;;;;;31.60;16.48;;;;;;;2.53;100.00;101883.91;6194471;28;20042;-90
2022/03/15 03:20:26;;;;;;;34.35;16.55;;;;;;;2.52;100.00;101883.09;6190033;28;20046;-89
2022/03/15 03:23:33;;;;;;;36.90;16.20;;;;;;;2.49;100.00;101869.56;6180044;28;20053;-89
2022/03/15 03:26:37;;;;;;;36.45;16.90;;;;;;;2.44;100.00;101866.28;6187615;28;20387;-89
2022/03/15 03:29:41;;;;;;;31.65;15.85;;;;;;;2.42;100.00;101868.84;6197441;28;20479;-89
2022/03/15 03:32:43;;;;;;;34.20;16.30;;;;;;;2.42;100.00;101873.13;6176384;28;20133;-89
2022/03/15 03:35:49;;;;;;;33.85;16.17;;;;;;;2.43;100.00;101874.78;6190295;28;20037;-89
2022/03/15 03:38:51;;;;;;;32.42;16.02;;;;;;;2.39;100.00;101871.47;6178337;28;20088;-89
2022/03/15 03:41:53;;;;;;;32.20;15.70;;;;;;;2.33;100.00;101876.72;6177534;28;20863;-89
2022/03/15 03:44:55;;;;;;;25.15;14.18;;;;;;;2.28;100.00;101878.53;6196243;28;20038;-89
2022/03/15 03:47:56;;;;;;;26.77;14.43;;;;;;;2.20;100.00;101881.28;6181443;28;20038;-89
2022/03/15 03:50:58;;;;;;;25.77;13.98;;;;;;;2.15;100.00;101870.31;6186103;28;20119;-89
2022/03/15 03:54:00;;;;;;;28.15;14.18;;;;;;;2.07;100.00;101867.09;6179721;28;20034;-89
2022/03/15 03:57:02;;;;;;;31.27;16.45;;;;;;;2.03;100.00;101861.19;6187217;28;20418;-89
2022/03/15 04:00:05;;;;;;;39.40;17.33;;;;;;;2.11;100.00;101858.47;6185281;28;20046;-89
2022/03/15 04:03:17;;;;;;;34.47;16.98;;;;;;;2.23;100.00;101860.75;6176194;28;20046;-89
2022/03/15 04:06:19;;;;;;;32.08;16.50;;;;;;;2.30;100.00;101859.75;6185088;28;20533;-89
2022/03/15 04:09:22;;;;;;;33.03;17.40;;;;;;;2.37;100.00;101861.28;6169940;28;20051;-89
2022/03/15 04:12:25;;;;;;;36.25;17.40;;;;;;;2.40;100.00;101867.22;6191094;28;20554;-89
2022/03/15 04:15:28;;;;;;;36.30;17.20;;;;;;;2.41;100.00;101859.50;6185980;28;20046;-89
2022/03/15 04:18:30;;;;;;;41.47;18.80;;;;;;;2.46;100.00;101860.25;6189437;28;20086;-89
2022/03/15 04:21:33;;;;;;;36.65;18.52;;;;;;;2.53;100.00;101859.19;6170275;28;20061;-89
2022/03/15 04:24:34;;;;;;;38.85;17.95;;;;;;;2.56;100.00;101860.88;6184693;28;20191;-89
2022/03/15 04:27:36;;;;;;;37.60;18.13;;;;;;;2.58;100.00;101853.97;6188612;28;20407;-89
2022/03/15 04:30:38;;;;;;;34.10;16.75;;;;;;;2.56;100.00;101855.75;6167727;28;20066;-89
2022/03/15 04:33:40;;;;;;;36.65;16.65;;;;;;;2.56;100.00;101855.75;6180312;28;20046;-89
2022/03/15 04:36:44;;;;;;;37.50;17.40;;;;;;;2.52;100.00;101854.97;6191337;28;20042;-90
2022/03/15 04:39:47;;;;;;;34.53;15.30;;;;;;;2.56;100.00;101855.75;6196767;28;20053;-90
2022/03/15 04:42:48;;;;;;;35.03;17.15;;;;;;;2.52;100.00;101852.41;6196022;28;20039;-89
2022/03/15 04:45:53;;;;;;;33.15;16.25;;;;;;;2.52;100.00;101856.69;6199502;28;20041;-89
2022/03/15 04:48:56;;;;;;;33.25;16.80;;;;;;;2.55;100.00;101851.50;6205015;28;20414;-89
2022/03/15 04:51:58;;;;;;;36.85;16.63;;;;;;;2.54;100.00;101849.84;6199853;28;20072;-89
2022/03/15 04:55:00;;;;;;;34.17;16.38;;;;;;;2.65;100.00;101847.84;6184092;28;20042;-89
2022/03/15 04:58:02;;;;;;;34.13;15.88;;;;;;;2.68;100.00;101852.03;6176327;28;20357;-89
2022/03/15 05:01:03;;;;;;;33.65;16.15;;;;;;;2.73;100.00;101848.50;6196225;28;20046;-89
2022/03/15 05:04:05;;;;;;;38.53;16.05;;;;;;;2.68;100.00;101849.47;6193708;28;20042;-89
2022/03/15 05:07:07;;;;;;;30.15;14.80;;;;;;;2.69;100.00;101849.47;6194707;28;20047;-89
2022/03/15 05:13:30;;;;;;;37.17;16.63;;;;;;;2.66;100.00;101838.44;6200347;28;20050;-89
2022/03/15 05:16:32;;;;;;;35.05;15.77;;;;;;;2.65;100.00;101847.00;6193908;28;20415;-90
2022/03/15 05:19:33;;;;;;;32.17;15.25;;;;;;;2.63;100.00;101841.94;6200770;28;20125;-89
2022/03/15 05:22:36;;;;;;;30.33;15.10;;;;;;;2.67;100.00;101848.66;6192477;28;20335;-89
2022/03/15 05:25:37;;;;;;;33.72;15.52;;;;;;;2.71;100.00;101852.81;6185311;28;20636;-89
2022/03/15 05:28:39;;;;;;;36.47;16.13;;;;;;;2.78;100.00;101848.38;6175425;28;20551;-89
2022/03/15 05:31:43;;;;;;;34.45;15.63;;;;;;;2.84;100.00;101852.50;6172806;28;20098;-89
2022/03/15 05:34:45;;;;;;;37.60;16.00;;;;;;;2.90;100.00;101849.78;6183002;28;20054;-90
2022/03/15 05:37:46;;;;;;;37.03;15.88;;;;;;;2.95;100.00;101847.94;6180963;28;20046;-90
2022/03/15 05:40:48;;;;;;;32.65;15.75;;;;;;;2.92;100.00;101843.75;6191078;28;20182;-90
2022/03/15 05:43:50;;;;;;;34.25;16.35;;;;;;;2.88;100.00;101847.28;6202679;28;20052;-89
2022/03/15 05:46:54;;;;;;;33.10;15.60;;;;;;;2.88;100.00;101842.19;6189006;28;20080;-89
2022/03/15 05:49:55;;;;;;;31.15;15.20;;;;;;;2.90;100.00;101849.78;6192362;28;20128;-89
2022/03/15 05:52:57;;;;;;;29.50;14.88;;;;;;;2.88;100.00;101848.97;6198245;28;20046;-90
2022/03/15 05:55:59;;;;;;;32.15;16.60;;;;;;;2.92;100.00;101855.72;6172377;28;20089;-90
2022/03/15 05:59:01;;;;;;;32.97;15.02;;;;;;;2.91;100.00;101851.50;6188797;28;20045;-90
2022/03/15 06:02:03;;;;;;;30.48;14.32;;;;;;;2.92;100.00;101863.38;6170740;28;20181;-89
2022/03/15 06:05:07;;;;;;;30.25;14.35;;;;;;;2.98;100.00;101858.09;6191959;28;20121;-89
2022/03/15 06:08:09;;;;;;;28.90;14.88;;;;;;;2.99;100.00;101857.22;6190221;28;20129;-89
2022/03/15 06:11:11;;;;;;;33.50;15.68;;;;;;;3.02;100.00;101859.69;6189831;28;20047;-89
2022/03/15 06:14:13;;;;;;;31.83;13.85;;;;;;;3.06;100.00;101855.38;6201538;28;20041;-89
2022/03/15 06:17:14;;;;;;;29.88;14.13;;;;;;;3.10;100.00;101862.91;6197730;28;20042;-89
2022/03/15 06:20:18;;;;;;;31.20;14.63;;;;;;;3.14;100.00;101861.94;6182521;28;20054;-89
2022/03/15 06:23:24;;;;;;;25.92;14.57;;;;;;;3.18;100.00;101866.09;6194333;28;21648;-89
2022/03/15 06:26:26;;;;;;;28.67;13.43;;;;;;;3.24;100.00;101863.38;6207365;28;20050;-89
2022/03/15 06:29:28;;;;;;;31.50;15.27;;;;;;;3.31;100.00;101855.53;6173580;28;20037;-89
2022/03/15 06:32:32;;;;;;;28.65;14.73;;;;;;;3.39;100.00;101859.56;6185456;28;20510;-89
2022/03/15 06:35:34;;;;;;;31.08;15.07;;;;;;;3.47;100.00;101858.50;6200284;28;20045;-89
2022/03/15 06:38:43;;;;;;;28.25;13.48;;;;;;;3.53;100.00;101860.88;6173052;28;20415;-89
2022/03/15 06:41:47;;;;;;;32.20;14.98;;;;;;;3.61;100.00;101857.25;6206004;28;20042;-89
2022/03/15 06:44:50;;;;;;;30.00;14.27;;;;;;;3.72;100.00;101856.09;6202935;28;20049;-89
2022/03/15 06:47:52;;;;;;;26.15;13.27;;;;;;;3.77;100.00;101856.78;6171814;28;20125;-89
2022/03/15 06:50:55;;;;;;;26.08;14.50;;;;;;;3.81;100.00;101859.22;6176249;28;20056;-89
2022/03/15 06:53:56;;;;;;;30.33;13.65;;;;;;;3.92;100.00;101850.38;6207851;28;20527;-89
2022/03/15 06:56:58;;;;;;;30.30;13.80;;;;;;;3.99;100.00;101846.75;6193059;28;20643;-89
2022/03/15 07:00:03;;;;;;;27.05;13.93;;;;;;;4.08;100.00;101851.63;6179013;28;20038;-89
2022/03/15 07:03:06;;;;;;;27.35;14.68;;;;;;;4.20;100.00;101863.19;6174225;28;20042;-89
2022/03/15 07:06:08;;;;;;;25.05;12.98;;;;;;;4.28;100.00;101840.75;6191658;28;20037;-89
2022/03/15 07:09:10;;;;;;;28.35;14.10;;;;;;;4.38;100.00;101849.81;6200299;28;20069;-85
2022/03/15 07:12:12;;;;;;;25.92;13.73;;;;;;;4.47;100.00;101853.81;6197096;28;20399;-89
2022/03/15 07:15:16;;;;;;;25.58;12.95;;;;;;;4.56;100.00;101856.06;6205506;28;20116;-89
2022/03/15 07:18:19;;;;;;;24.90;13.50;;;;;;;4.67;100.00;101858.28;6197210;28;20095;-89
2022/03/15 07:21:22;;;;;;;29.63;14.52;;;;;;;4.77;100.00;101857.13;6195096;28;20574;-89
2022/03/15 07:24:27;;;;;;;27.98;14.70;;;;;;;4.89;100.00;101851.53;6190016;28;20392;-90
2022/03/15 07:27:30;;;;;;;29.80;13.98;;;;;;;5.02;100.00;101856.25;6195595;28;20042;-90
2022/03/15 07:30:32;;;;;;;24.80;14.10;;;;;;;5.14;100.00;101853.28;6196934;28;20051;-90
2022/03/15 07:33:33;;;;;;;27.27;14.50;;;;;;;5.27;100.00;101846.00;6180617;28;20490;-90
2022/03/15 07:36:36;;;;;;;25.52;13.57;;;;;;;5.40;100.00;101842.09;6197813;28;20048;-90
2022/03/15 07:39:37;;;;;;;26.83;13.85;;;;;;;5.51;100.00;101839.13;6199547;28;20046;-90
2022/03/15 07:42:39;;;;;;;24.58;13.23;;;;;;;5.64;100.00;101837.81;6202182;28;20556;-90
2022/03/15 07:45:42;;;;;;;24.83;13.10;;;;;;;5.76;100.00;101833.91;6171572;28;20034;-90
2022/03/15 07:48:49;;;;;;;26.00;13.30;;;;;;;5.90;100.00;101836.81;6195080;28;20043;-90
2022/03/15 07:51:50;;;;;;;21.65;12.80;;;;;;;6.02;100.00;101836.38;6161613;28;20046;-91
2022/03/15 07:54:52;;;;;;;22.83;12.70;;;;;;;6.16;100.00;101830.69;6156058;28;20054;-90
2022/03/15 07:57:54;;;;;;;27.23;12.90;;;;;;;6.32;100.00;101827.50;6189706;28;20191;-90
2022/03/15 08:00:57;;;;;;;27.08;13.43;;;;;;;6.46;100.00;101828.63;6201957;28;20045;-90
2022/03/15 08:03:59;;;;;;;21.42;11.77;;;;;;;6.58;100.00;101824.69;6198518;28;20042;-90
2022/03/15 08:07:01;;;;;;;19.58;11.90;;;;;;;6.72;100.00;101826.72;6198520;28;20046;-92
2022/03/15 08:10:05;;;;;;;22.25;12.18;;;;;;;6.84;100.00;101822.78;6171578;28;20635;-92
2022/03/15 08:13:06;;;;;;;18.17;10.95;;;;;;;6.95;100.00;101822.31;6179250;28;20057;-92
2022/03/15 08:16:09;;;;;;;21.17;12.07;;;;;;;7.12;100.00;101823.25;6185561;28;20045;-91
2022/03/15 08:19:12;;;;;;;20.30;11.95;;;;;;;7.28;100.00;101820.03;6205534;28;20042;-92
2022/03/15 08:22:13;;;;;;;19.08;11.45;;;;;;;7.38;100.00;101818.72;6180131;28;20054;-92
2022/03/15 08:25:15;;;;;;;17.25;10.20;;;;;;;7.57;100.00;101817.88;6200052;28;20088;-92
2022/03/15 08:28:17;;;;;;;18.77;11.18;;;;;;;7.61;100.00;101815.09;6192246;28;20050;-92
2022/03/15 08:31:19;;;;;;;18.67;10.98;;;;;;;7.71;100.00;101813.75;6207346;28;20057;-93
2022/03/15 08:34:21;;;;;;;18.73;10.57;;;;;;;7.73;100.00;101808.56;6197463;28;20046;-92
2022/03/15 08:37:23;;;;;;;19.20;10.82;;;;;;;7.84;100.00;101811.44;6201820;28;20038;-92
2022/03/15 08:40:25;;;;;;;15.50;10.30;;;;;;;7.96;100.00;101813.44;6203610;28;20053;-93
2022/03/15 08:43:36;;;;;;;16.55;10.07;;;;;;;8.04;100.00;101820.00;6202774;28;20358;-92
2022/03/15 08:46:38;;;;;;;18.45;10.02;;;;;;;8.13;100.00;101816.97;6200160;28;20049;-92
2022/03/15 08:49:43;;;;;;;13.35;8.93;;;;;;;8.17;100.00;101810.75;6190558;28;20404;-93
2022/03/15 08:52:47;;;;;;;18.55;9.43;;;;;;;8.19;100.00;101804.59;6192900;28;20450;-93
2022/03/15 08:55:50;;;;;;;17.90;9.82;;;;;;;8.22;100.00;101805.38;6186452;28;20102;-93
2022/03/15 08:58:52;;;;;;;16.38;9.23;;;;;;;8.30;100.00;101800.69;6193540;28;20579;-93
2022/03/15 09:01:54;;;;;;;15.80;9.07;;;;;;;8.41;100.00;101795.88;6202569;28;20155;-93
2022/03/15 09:04:56;;;;;;;14.43;9.57;;;;;;;8.48;100.00;101797.22;6220615;28;20053;-93
2022/03/15 09:07:58;;;;;;;16.42;9.55;;;;;;;8.60;100.00;101793.22;6190617;28;20049;-92
2022/03/15 09:11:03;;;;;;;16.42;9.38;;;;;;;8.71;100.00;101788.31;6185200;28;20050;-92
2022/03/15 09:14:05;;;;;;;15.63;9.07;;;;;;;8.82;100.00;101774.88;6176575;28;20497;-93
2022/03/15 09:17:09;;;;;;;13.27;8.80;;;;;;;8.91;100.00;101783.91;6193110;28;20057;-92
2022/03/15 09:20:12;;;;;;;13.38;7.78;;;;;;;9.07;100.00;101774.44;6211336;28;20042;-92
2022/03/15 09:23:13;;;;;;;15.25;8.55;;;;;;;9.09;100.00;101775.16;6212413;28;20046;-92
2022/03/15 09:26:15;;;;;;;15.95;8.85;;;;;;;9.20;100.00;101775.44;6210441;28;20072;-92
2022/03/15 09:29:17;;;;;;;12.85;8.27;;;;;;;9.38;100.00;101760.72;6181468;28;20257;-92
2022/03/15 09:32:19;;;;;;;12.35;7.82;;;;;;;9.48;100.00;101768.78;6200276;28;20070;-92
2022/03/15 09:35:20;;;;;;;13.25;8.20;;;;;;;9.63;100.00;101760.19;6194699;28;20038;-92
2022/03/15 09:38:23;;;;;;;13.30;8.00;;;;;;;9.75;100.00;101760.44;6181034;28;20196;-92
2022/03/15 09:41:26;;;;;;;12.27;7.60;;;;;;;9.81;100.00;101758.38;6185815;28;20255;-92
2022/03/15 09:44:34;;;;;;;11.50;7.38;;;;;;;9.95;100.00;101755.00;6206773;28;20043;-92
2022/03/15 09:47:38;;;;;;;10.85;7.40;;;;;;;10.08;100.00;101753.38;6181732;28;20039;-92
2022/03/15 09:50:41;;;;;;;12.40;7.10;;;;;;;10.26;100.00;101756.66;6209065;28;20589;-92
2022/03/15 09:53:44;;;;;;;14.02;7.70;;;;;;;10.38;100.00;101747.38;6187182;28;20052;-92
2022/03/15 09:56:49;;;;;;;11.00;6.78;;;;;;;10.53;100.00;101743.03;6180019;28;20050;-92
2022/03/15 09:59:52;;;;;;;11.25;6.97;;;;;;;10.64;100.00;101737.25;6197545;28;20046;-93
2022/03/15 10:02:54;;;;;;;13.65;7.05;;;;;;;10.70;100.00;101737.69;6213142;28;20046;-92
2022/03/15 10:05:56;;;;;;;12.32;7.35;;;;;;;10.80;100.00;101743.16;6186023;28;20085;-93
2022/03/15 10:08:58;;;;;;;11.20;6.97;;;;;;;10.82;100.00;101735.31;6201666;28;20043;-93
2022/03/15 10:12:02;;;;;;;12.65;6.95;;;;;;;10.92;100.00;101737.22;6183764;28;20053;-92
2022/03/15 10:15:24;;;;;;;10.20;6.50;;;;;;;11.05;100.00;101726.13;6206773;28;20048;-93
2022/03/15 10:18:27;;;;;;;9.38;6.75;;;;;;;11.09;100.00;101727.59;6187066;28;20050;-93
2022/03/15 10:21:39;;;;;;;13.63;7.13;;;;;;;11.08;100.00;101718.16;6194438;28;20046;-93
2022/03/15 10:24:42;;;;;;;13.20;7.50;;;;;;;11.16;100.00;101724.53;6203763;28;20053;-93
2022/03/15 10:27:50;;;;;;;11.43;6.68;;;;;;;11.31;100.00;101721.91;6188924;28;20305;-93
2022/03/15 10:30:53;;;;;;;11.52;7.25;;;;;;;11.31;100.00;101727.09;6209121;28;20046;-93
2022/03/15 10:34:01;;;;;;;11.75;7.82;;;;;;;11.36;100.00;101725.88;6200496;28;20050;-93
2022/03/15 10:37:04;;;;;;;11.23;6.78;;;;;;;11.37;100.00;101721.53;6224141;28;20040;-93
2022/03/15 10:40:06;;;;;;;9.20;7.40;;;;;;;11.34;100.00;101719.13;6201766;28;20046;-93
2022/03/15 10:43:23;;;;;;;10.32;7.00;;;;;;;11.33;100.00;101710.53;6211140;28;20046;-93
2022/03/15 10:46:26;;;;;;;10.95;6.97;;;;;;;11.37;100.00;101713.75;6207787;28;20042;-93
2022/03/15 10:49:30;;;;;;;11.48;6.80;;;;;;;11.35;100.00;101716.44;6210734;28;20042;-93
2022/03/15 10:52:41;;;;;;;9.55;6.80;;;;;;;11.40;100.00;101703.19;6198779;28;20047;-93
2022/03/15 10:55:46;;;;;;;11.15;6.20;;;;;;;11.52;100.00;101696.38;6211755;28;20042;-93
2022/03/15 10:59:04;;;;;;;12.18;6.55;;;;;;;11.64;100.00;101693.00;6806336;22;20026;-93
2022/03/15 11:14:29;;;;;;;10.60;6.55;;;;;;;12.16;100.00;101681.00;4941532;23;20217;-93
2022/03/15 11:18:01;;;;;;;7.88;5.90;;;;;;;12.33;100.00;101675.50;3961825;23;20214;-92
2022/03/15 11:21:10;;;;;;;8.00;5.72;;;;;;;12.43;100.00;101670.50;6037543;29;20065;-93
2022/03/15 11:24:23;;;;;;;10.05;5.22;;;;;;;12.42;100.00;101656.69;6032239;29;20042;-93
2022/03/15 11:27:33;;;;;;;7.93;5.47;;;;;;;12.50;100.00;101666.56;6027537;29;20026;-93
2022/03/15 11:30:39;;;;;;;8.75;5.40;;;;;;;12.46;100.00;101650.34;6039917;29;20046;-93
2022/03/15 11:33:45;;;;;;;9.55;4.82;;;;;;;12.57;100.00;101649.63;6002435;29;20045;-90
2022/03/15 11:36:51;;;;;;;7.72;5.10;;;;;;;12.58;100.00;101646.06;6024569;29;20050;-93
2022/03/15 11:40:18;;;;;;;11.15;5.68;;;;;;;12.57;100.00;101638.38;6258246;23;20042;31
2022/03/15 11:43:37;;;;;;;9.75;5.18;;;;;;;12.67;100.00;101629.84;6013678;29;20448;-93
2022/03/15 11:47:11;;;;;;;8.82;5.30;;;;;;;12.79;100.00;101620.34;5996559;29;20042;-93
2022/03/15 11:50:25;;;;;;;8.68;5.20;;;;;;;12.90;100.00;101611.81;6233048;24;20112;-93
2022/03/15 11:54:06;;;;;;;7.22;4.65;;;;;;;12.97;100.00;101613.03;6218788;23;20066;-94
2022/03/15 12:04:28;;;;;;;6.68;4.85;;;;;;;12.73;100.00;101581.81;6469674;23;20097;-93
2022/03/15 12:08:17;;;;;;;7.20;5.22;;;;;;;12.73;100.00;101579.22;6627507;23;20042;-94
2022/03/15 12:37:11;;;;;;;7.18;4.50;;;;;;;12.96;97.44;101528.19;6719758;23;20105;-94
2022/03/15 12:40:29;;;;;;;7.63;4.75;;;;;;;12.96;97.27;101522.16;6048706;29;20045;-95
2022/03/15 12:43:33;;;;;;;8.45;4.60;;;;;;;13.06;94.94;101513.56;6013828;29;20109;-95
2022/03/15 12:46:40;;;;;;;7.22;4.50;;;;;;;13.03;93.45;101505.19;6019671;29;20079;-95
2022/03/15 12:50:23;;;;;;;7.57;4.63;;;;;;;12.86;93.92;101507.22;6028692;29;20106;-95
2022/03/15 12:53:42;;;;;;;6.78;4.30;;;;;;;12.87;93.96;101501.09;6016832;29;20061;-95
2022/03/15 12:56:48;;;;;;;7.68;5.05;;;;;;;12.79;94.37;101495.63;6016078;29;20102;-95
2022/03/15 12:59:50;;;;;;;7.93;4.50;;;;;;;12.76;94.25;101487.22;6009173;29;20042;-95
2022/03/15 13:02:55;;;;;;;8.30;4.57;;;;;;;12.76;97.00;101476.84;6034353;29;20054;-95
2022/03/15 13:05:58;;;;;;;7.25;5.30;;;;;;;12.77;98.90;101483.69;6692830;23;20054;-95
2022/03/15 13:09:07;;;;;;;7.53;5.25;;;;;;;12.78;99.57;101477.56;6015997;29;20050;-95
2022/03/15 13:12:16;;;;;;;8.45;6.03;;;;;;;12.83;98.87;101481.47;6001656;29;20046;-95
2022/03/15 13:15:21;;;;;;;10.98;5.80;;;;;;;12.83;100.00;101468.47;6002630;29;20065;-95
2022/03/15 13:18:45;;;;;;;7.97;5.18;;;;;;;12.83;99.85;101465.06;5989761;29;20060;-95
2022/03/15 13:22:21;;;;;;;9.00;5.00;;;;;;;12.80;99.14;101454.91;6869315;23;20635;-95
2022/03/15 13:29:27;;;;;;;9.48;4.97;;;;;;;12.63;98.12;101443.13;7356307;23;21357;31
2022/03/15 13:36:34;;;;;;;7.13;5.22;;;;;;;12.42;100.00;101441.16;6070944;23;20049;-95
2022/03/15 13:43:59;;;;;;;11.15;5.32;;;;;;;12.33;100.00;101435.81;6980163;23;20042;-95
2022/03/15 13:55:11;;;;;;;7.07;5.07;;;;;;;12.33;98.62;101421.06;6612897;23;20275;31
2022/03/15 13:58:44;;;;;;;9.15;5.13;;;;;;;12.37;100.00;101421.66;6922233;23;20034;-93
2022/03/15 14:01:56;;;;;;;7.00;4.70;;;;;;;12.38;98.37;101421.53;6092031;23;20113;-93
2022/03/15 14:05:31;;;;;;;7.00;4.82;;;;;;;12.36;100.00;101410.44;6810338;23;20058;31
2022/03/15 14:19:57;;;;;;;6.88;5.40;;;;;;;12.14;100.00;101398.16;6370217;23;20097;-93
2022/03/15 14:23:14;;;;;;;10.20;5.53;;;;;;;12.06;100.00;101396.13;6916891;23;20059;-94
2022/03/15 14:34:10;;;;;;;9.35;5.00;;;;;;;11.99;100.00;101394.91;6106407;23;20037;-93
2022/03/15 14:37:38;;;;;;;8.75;5.13;;;;;;;11.84;100.00;101391.59;6590200;23;20087;-93
2022/03/15 14:41:18;;;;;;;7.35;4.72;;;;;;;11.71;100.00;101390.81;7355477;23;20028;31
2022/03/15 15:11:55;;;;;;;9.30;5.05;;;;;;;11.18;100.00;101366.81;7380528;23;20941;31
2022/03/15 15:33:42;;;;;;;10.50;6.00;;;;;;;11.08;100.00;101363.16;7380797;23;20024;31
2022/03/15 15:44:35;;;;;;;12.68;6.55;;;;;;;10.93;100.00;101360.72;7380655;23;20226;31
2022/03/15 15:48:03;;;;;;;13.13;6.38;;;;;;;10.89;100.00;101366.19;6539061;23;20066;-93
2022/03/15 15:58:55;;;;;;;13.52;6.85;;;;;;;10.63;100.00;101368.72;6067817;23;20050;-95
2022/03/15 16:16:47;;;;;;;15.63;8.77;;;;;;;10.23;100.00;101388.56;7311449;23;20060;-92
2022/03/15 16:24:12;;;;;;;16.92;8.57;;;;;;;10.10;100.00;101384.16;7178586;23;20038;-94
2022/03/15 16:53:11;;;;;;;22.75;10.85;;;;;;;9.54;100.00;101393.69;6733304;23;20042;-92
2022/03/15 17:00:33;;;;;;;17.90;9.85;;;;;;;9.30;100.00;101393.41;6426142;23;20066;-92
2022/03/15 18:53:01;;;;;;;37.17;17.27;;;;;;;6.80;100.00;101433.50;6233897;23;20292;-91
2022/03/15 18:56:06;;;;;;;35.00;19.33;;;;;;;6.74;100.00;101436.38;5993157;29;20042;-90
2022/03/15 18:59:09;;;;;;;37.60;19.30;;;;;;;6.59;100.00;101430.22;5998601;29;20034;-91
2022/03/15 19:02:11;;;;;;;32.83;18.33;;;;;;;6.44;100.00;101436.09;6006388;29;20066;-91
2022/03/15 19:05:13;;;;;;;35.97;18.15;;;;;;;6.29;100.00;101431.69;6003285;29;20057;-91
2022/03/15 19:08:18;;;;;;;33.95;18.42;;;;;;;6.13;100.00;101429.78;5993924;29;20453;-91
2022/03/15 19:11:23;;;;;;;37.40;19.20;;;;;;;5.99;100.00;101427.03;6001899;29;20046;-93
2022/03/15 19:14:31;;;;;;;33.78;18.30;;;;;;;5.86;100.00;101419.00;6005547;29;20065;-93